createdAt,value
2023-02-27T00:01:47.866Z,101023.00
2023-02-27T00:04:14.677Z,101028.25
2023-02-27T00:06:41.202Z,101029.09
2023-02-27T00:09:08.308Z,101023.03
2023-02-27T00:11:34.936Z,101021.28
2023-02-27T00:14:01.414Z,101024.78
2023-02-27T00:16:28.041Z,101020.44
2023-02-27T00:18:54.902Z,101014.38
2023-02-27T00:21:21.375Z,101010.03
2023-02-27T00:23:47.999Z,101015.25
2023-02-27T00:26:14.540Z,101004.84
2023-02-27T00:28:40.978Z,101010.09
2023-02-27T00:31:09.143Z,101011.81
2023-02-27T00:33:35.709Z,101015.28
2023-02-27T00:36:02.821Z,101017.91
2023-02-27T00:38:29.657Z,101010.09
2023-02-27T00:40:56.186Z,101015.31
2023-02-27T00:43:22.677Z,101009.25
2023-02-27T00:45:49.182Z,101013.59
2023-02-27T00:48:16.207Z,101011.88
2023-02-27T00:50:43.359Z,101008.44
2023-02-27T00:53:10.050Z,101012.75
2023-02-27T00:55:36.604Z,101001.50
2023-02-27T00:58:03.122Z,101006.72
2023-02-27T01:00:29.756Z,101002.41
2023-02-27T01:02:56.318Z,101003.25
2023-02-27T01:05:22.789Z,101004.13
2023-02-27T01:07:49.322Z,101005.88
2023-02-27T01:10:15.863Z,101007.59
2023-02-27T01:12:42.428Z,101005.00
2023-02-27T01:15:10.220Z,101010.25
2023-02-27T01:17:36.690Z,101010.25
2023-02-27T01:20:03.749Z,101004.19
2023-02-27T01:22:30.156Z,101005.94
2023-02-27T01:24:56.647Z,100998.97
2023-02-27T01:27:23.068Z,100998.13
2023-02-27T01:29:49.613Z,100999.91
2023-02-27T01:32:16.320Z,100999.91
2023-02-27T01:34:42.781Z,101001.63
2023-02-27T01:37:09.374Z,100996.41
2023-02-27T01:39:36.553Z,100999.03
2023-02-27T01:42:03.929Z,100996.41
2023-02-27T01:44:31.660Z,100992.09
2023-02-27T01:46:58.261Z,100999.91
2023-02-27T01:49:29.628Z,100996.41
2023-02-27T01:52:05.868Z,101006.81
2023-02-27T01:54:36.452Z,101002.50
2023-02-27T01:57:06.645Z,101000.75
2023-02-27T01:59:34.785Z,100999.03
2023-02-27T02:02:04.984Z,101005.94
2023-02-27T02:04:36.321Z,101003.34
2023-02-27T02:07:07.599Z,101003.34
2023-02-27T02:09:41.189Z,101011.13
2023-02-27T02:12:08.204Z,101016.34
2023-02-27T02:14:35.775Z,101012.91
2023-02-27T02:17:22.516Z,101012.91
2023-02-27T02:19:58.028Z,101015.50
2023-02-27T02:22:39.671Z,101012.91
2023-02-27T02:25:27.441Z,101011.16
2023-02-27T02:28:03.069Z,101012.91
2023-02-27T02:30:44.989Z,101001.66
2023-02-27T02:33:33.385Z,100997.34
2023-02-27T02:36:15.140Z,101004.25
2023-02-27T02:38:50.847Z,101006.00
2023-02-27T02:41:40.274Z,101002.53
2023-02-27T02:44:31.533Z,101011.22
2023-02-27T02:47:17.045Z,101012.94
2023-02-27T02:50:01.904Z,101012.09
2023-02-27T02:52:51.593Z,101010.34
2023-02-27T02:55:33.358Z,101013.81
2023-02-27T02:58:18.152Z,101005.13
2023-02-27T03:01:10.912Z,101006.88
2023-02-27T03:03:44.364Z,101008.59
2023-02-27T03:06:19.823Z,101011.22
2023-02-27T03:08:55.634Z,101009.50
2023-02-27T03:11:29.671Z,101001.69
2023-02-27T03:14:09.084Z,101000.81
2023-02-27T03:16:45.849Z,101010.34
2023-02-27T03:19:23.038Z,101008.59
2023-02-27T03:21:59.159Z,101009.50
2023-02-27T03:24:48.631Z,101014.69
2023-02-27T03:27:17.530Z,101017.28
2023-02-27T03:30:01.183Z,101014.69
2023-02-27T03:32:36.633Z,101023.34
2023-02-27T03:35:05.543Z,101030.28
2023-02-27T03:37:53.884Z,101024.22
2023-02-27T03:40:33.522Z,101029.44
2023-02-27T03:43:09.020Z,101025.09
2023-02-27T03:45:57.054Z,101030.31
2023-02-27T03:48:23.760Z,101037.22
2023-02-27T03:50:50.497Z,101036.38
2023-02-27T03:53:42.966Z,101038.13
2023-02-27T03:56:13.368Z,101042.44
2023-02-27T03:58:40.262Z,101039.84
2023-02-27T04:01:06.989Z,101054.56
2023-02-27T04:03:39.452Z,101048.50
2023-02-27T04:06:26.220Z,101044.16
2023-02-27T04:09:16.965Z,101045.03
2023-02-27T04:12:11.852Z,101047.63
2023-02-27T04:14:50.496Z,101046.78
2023-02-27T04:17:29.577Z,101050.22
2023-02-27T04:20:08.351Z,101037.25
2023-02-27T04:22:57.364Z,101040.72
2023-02-27T04:25:42.696Z,101047.66
2023-02-27T04:28:17.506Z,101047.66
2023-02-27T04:31:05.627Z,101048.53
2023-02-27T04:33:43.121Z,101051.13
2023-02-27T04:36:28.261Z,101052.00
2023-02-27T04:39:27.628Z,101046.78
2023-02-27T04:41:55.962Z,101049.41
2023-02-27T04:44:25.214Z,101058.03
2023-02-27T04:46:53.813Z,101052.88
2023-02-27T04:49:25.681Z,101054.59
2023-02-27T04:51:58.475Z,101054.59
2023-02-27T04:54:31.349Z,101056.31
2023-02-27T04:57:04.123Z,101058.91
2023-02-27T04:59:36.172Z,101059.75
2023-02-27T05:02:10.428Z,101072.75
2023-02-27T05:04:40.367Z,101073.63
2023-02-27T05:07:10.677Z,101077.94
2023-02-27T05:09:51.195Z,101080.53
2023-02-27T05:12:21.477Z,101082.28
2023-02-27T05:15:17.222Z,101086.59
2023-02-27T05:17:55.355Z,101096.16
2023-02-27T05:20:25.046Z,101091.81
2023-02-27T05:23:00.937Z,101096.13
2023-02-27T05:25:46.060Z,101101.34
2023-02-27T05:28:40.989Z,101104.81
2023-02-27T05:31:28.238Z,101109.13
2023-02-27T05:34:04.135Z,101110.00
2023-02-27T05:36:41.745Z,101109.13
2023-02-27T05:39:10.243Z,101116.03
2023-02-27T05:41:46.768Z,101113.47
2023-02-27T05:44:18.879Z,101117.78
2023-02-27T05:46:53.547Z,101116.06
2023-02-27T05:49:27.794Z,101119.50
2023-02-27T05:51:57.362Z,101116.91
2023-02-27T05:54:38.931Z,101104.78
2023-02-27T05:57:10.839Z,101112.59
2023-02-27T05:59:55.073Z,101111.72
2023-02-27T06:02:21.745Z,101115.16
2023-02-27T06:04:48.379Z,101113.44
2023-02-27T06:07:15.459Z,101109.13
2023-02-27T06:09:44.502Z,101125.56
2023-02-27T06:12:11.027Z,101118.66
2023-02-27T06:14:37.498Z,101112.59
2023-02-27T06:17:05.046Z,101117.78
2023-02-27T06:19:31.604Z,101127.28
2023-02-27T06:21:58.164Z,101127.28
2023-02-27T06:24:25.450Z,101130.75
2023-02-27T06:26:51.916Z,101124.69
2023-02-27T06:29:18.484Z,101129.88
2023-02-27T06:31:45.036Z,101129.03
2023-02-27T06:34:11.580Z,101133.34
2023-02-27T06:36:38.101Z,101126.41
2023-02-27T06:39:05.107Z,101133.38
2023-02-27T06:41:31.574Z,101134.22
2023-02-27T06:43:58.129Z,101128.16
2023-02-27T06:46:25.181Z,101134.22
2023-02-27T06:48:51.857Z,101139.41
2023-02-27T06:51:28.945Z,101136.81
2023-02-27T06:53:58.953Z,101135.94
2023-02-27T06:56:42.292Z,101142.88
2023-02-27T06:59:24.421Z,101143.72
2023-02-27T07:02:13.959Z,101141.13
2023-02-27T07:04:44.818Z,101148.06
2023-02-27T07:07:35.108Z,101142.00
2023-02-27T07:10:05.661Z,101145.47
2023-02-27T07:12:32.182Z,101150.66
2023-02-27T07:14:59.022Z,101148.94
2023-02-27T07:17:25.588Z,101147.22
2023-02-27T07:19:52.028Z,101150.66
2023-02-27T07:22:18.540Z,101150.66
2023-02-27T07:24:45.198Z,101156.75
2023-02-27T07:27:11.677Z,101156.75
2023-02-27T07:29:38.175Z,101161.06
2023-02-27T07:32:04.705Z,101161.06
2023-02-27T07:34:31.287Z,101167.16
2023-02-27T07:36:57.773Z,101161.94
2023-02-27T07:39:24.366Z,101174.06
2023-02-27T07:41:50.817Z,101176.66
2023-02-27T07:44:17.494Z,101175.81
2023-02-27T07:46:44.732Z,101181.88
2023-02-27T07:49:11.368Z,101182.75
2023-02-27T07:51:37.882Z,101181.03
2023-02-27T07:54:04.464Z,101183.63
2023-02-27T07:56:31.517Z,101176.69
2023-02-27T07:58:58.049Z,101181.00
2023-02-27T08:01:24.556Z,101181.84
2023-02-27T08:03:51.024Z,101179.28
2023-02-27T08:06:17.658Z,101184.44
2023-02-27T08:08:44.320Z,101181.81
2023-02-27T08:11:11.294Z,101195.69
2023-02-27T08:16:24.352Z,101180.88
2023-02-27T08:18:50.931Z,101180.84
2023-02-27T08:21:17.453Z,101179.97
2023-02-27T08:23:43.875Z,101173.00
2023-02-27T08:26:10.776Z,101175.56
2023-02-27T08:28:38.446Z,101181.59
2023-02-27T08:31:05.239Z,101182.44
2023-02-27T08:33:31.734Z,101170.25
2023-02-27T08:35:58.534Z,101183.25
2023-02-27T08:38:26.436Z,101184.09
2023-02-27T08:40:53.476Z,101186.63
2023-02-27T08:43:21.179Z,101177.94
2023-02-27T08:45:48.777Z,101184.00
2023-02-27T08:48:17.245Z,101177.91
2023-02-27T08:50:44.617Z,101177.03
2023-02-27T08:53:11.762Z,101178.75
2023-02-27T08:55:38.339Z,101188.28
2023-02-27T08:58:04.851Z,101179.59
2023-02-27T09:00:32.456Z,101178.72
2023-02-27T09:03:00.010Z,101185.66
2023-02-27T09:05:26.845Z,101178.69
2023-02-27T09:07:53.552Z,101187.38
2023-02-27T09:10:19.982Z,101194.31
2023-02-27T09:12:46.448Z,101196.91
2023-02-27T09:15:13.017Z,101194.28
2023-02-27T09:17:39.570Z,101189.03
2023-02-27T09:20:09.310Z,101193.34
2023-02-27T09:22:35.934Z,101195.06
2023-02-27T09:25:02.641Z,101195.06
2023-02-27T09:27:29.286Z,101198.53
2023-02-27T09:29:56.406Z,101195.03
2023-02-27T09:32:24.163Z,101195.84
2023-02-27T09:34:50.733Z,101190.63
2023-02-27T09:37:18.126Z,101188.84
2023-02-27T09:39:46.416Z,101194.88
2023-02-27T09:42:22.373Z,101194.88
2023-02-27T09:45:02.200Z,101199.16
2023-02-27T09:47:44.490Z,101195.66
2023-02-27T09:50:38.555Z,101193.88
2023-02-27T09:53:09.272Z,101192.06
2023-02-27T09:55:39.785Z,101190.28
2023-02-27T09:58:31.211Z,101191.97
2023-02-27T10:01:26.113Z,101197.97
2023-02-27T10:04:30.448Z,101195.28
2023-02-27T10:07:03.003Z,101189.09
2023-02-27T10:09:32.282Z,101196.84
2023-02-27T10:12:20.020Z,101199.41
2023-02-27T10:15:33.324Z,101193.22
2023-02-27T10:18:26.056Z,101196.59
2023-02-27T10:20:58.944Z,101186.91
2023-02-27T10:23:43.704Z,101197.28
2023-02-27T10:26:33.100Z,101201.53
2023-02-27T10:29:09.756Z,101203.13
2023-02-27T10:31:36.744Z,101207.28
2023-02-27T10:34:03.470Z,101209.72
2023-02-27T10:36:34.416Z,101200.00
2023-02-27T10:39:11.079Z,101208.50
2023-02-27T10:41:39.870Z,101210.81
2023-02-27T10:44:06.650Z,101219.31
2023-02-27T10:46:38.497Z,101211.19
2023-02-27T10:49:16.021Z,101208.31
2023-02-27T10:51:44.453Z,101211.47
2023-02-27T10:54:26.353Z,101212.19
2023-02-27T10:56:55.946Z,101209.34
2023-02-27T10:59:35.456Z,101209.25
2023-02-27T11:02:06.786Z,101206.44
2023-02-27T11:04:38.043Z,101200.22
2023-02-27T11:07:09.032Z,101198.44
2023-02-27T11:09:37.152Z,101196.53
2023-02-27T11:12:13.134Z,101198.09
2023-02-27T11:15:14.931Z,101193.47
2023-02-27T11:17:42.053Z,101189.56
2023-02-27T11:20:31.692Z,101185.75
2023-02-27T11:23:16.052Z,101183.50
2023-02-27T11:25:43.697Z,101183.81
2023-02-27T11:28:29.589Z,101175.50
2023-02-27T11:31:08.766Z,101178.34
2023-02-27T11:33:39.281Z,101178.47
2023-02-27T11:36:07.146Z,101179.44
2023-02-27T11:38:34.795Z,101177.72
2023-02-27T11:41:04.430Z,101179.50
2023-02-27T11:43:36.299Z,101177.78
2023-02-27T11:46:42.780Z,101172.63
2023-02-27T11:49:08.191Z,101182.31
2023-02-27T11:52:12.056Z,101174.31
2023-02-27T11:54:59.865Z,101167.22
2023-02-27T11:57:29.691Z,101164.13
2023-02-27T12:00:17.998Z,101162.31
2023-02-27T12:02:47.640Z,101155.56
2023-02-27T12:05:26.132Z,101152.22
2023-02-27T12:08:07.720Z,101154.91
2023-02-27T12:11:12.337Z,101156.53
2023-02-27T12:13:45.503Z,101146.13
2023-02-27T12:16:34.778Z,101142.44
2023-02-27T12:19:19.815Z,101142.28
2023-02-27T12:21:54.158Z,101146.94
2023-02-27T12:24:49.617Z,101142.91
2023-02-27T12:27:34.148Z,101149.97
2023-02-27T12:30:07.614Z,101147.31
2023-02-27T12:32:42.941Z,101146.56
2023-02-27T12:35:19.593Z,101147.19
2023-02-27T12:37:46.266Z,101141.53
2023-02-27T12:40:18.162Z,101149.03
2023-02-27T12:42:58.475Z,101146.34
2023-02-27T12:45:43.275Z,101145.81
2023-02-27T12:48:40.647Z,101147.38
2023-02-27T12:51:19.451Z,101146.22
2023-02-27T12:54:00.998Z,101148.59
2023-02-27T12:56:51.163Z,101153.34
2023-02-27T12:59:48.270Z,101144.25
2023-02-27T13:02:35.907Z,101142.50
2023-02-27T13:05:29.933Z,101143.19
2023-02-27T13:08:04.801Z,101150.44
2023-02-27T13:10:33.539Z,101147.94
2023-02-27T13:13:28.786Z,101144.75
2023-02-27T13:16:00.676Z,101140.53
2023-02-27T13:18:45.355Z,101148.09
2023-02-27T13:21:39.720Z,101140.72
2023-02-27T13:24:28.359Z,101140.81
2023-02-27T13:27:00.470Z,101139.09
2023-02-27T13:29:47.359Z,101127.41
2023-02-27T13:32:44.668Z,101128.66
2023-02-27T13:35:19.958Z,101126.94
2023-02-27T13:38:02.287Z,101121.34
2023-02-27T13:40:30.110Z,101131.59
2023-02-27T13:43:00.397Z,101123.91
2023-02-27T13:45:48.669Z,101128.97
2023-02-27T13:48:46.134Z,101123.28
2023-02-27T13:51:50.833Z,101128.13
2023-02-27T13:54:22.054Z,101122.94
2023-02-27T13:56:54.661Z,101131.09
2023-02-27T13:59:23.695Z,101130.63
2023-02-27T14:01:58.154Z,101125.66
2023-02-27T14:04:28.466Z,101131.94
2023-02-27T14:07:11.013Z,101131.06
2023-02-27T14:09:41.364Z,101127.97
2023-02-27T14:12:44.518Z,101132.94
2023-02-27T14:15:17.405Z,101128.28
2023-02-27T14:17:46.376Z,101126.34
2023-02-27T14:20:12.963Z,101125.31
2023-02-27T14:23:05.307Z,101127.00
2023-02-27T14:25:39.389Z,101129.88
2023-02-27T14:28:16.159Z,101123.63
2023-02-27T14:30:51.036Z,101133.88
2023-02-27T14:33:39.070Z,101130.16
2023-02-27T14:36:19.901Z,101141.75
2023-02-27T14:38:46.946Z,101135.47
2023-02-27T14:41:35.502Z,101127.94
2023-02-27T14:44:02.984Z,101126.97
2023-02-27T14:46:39.843Z,101130.06
2023-02-27T14:49:18.026Z,101122.00
2023-02-27T14:51:44.667Z,101124.03
2023-02-27T14:54:21.211Z,101123.72
2023-02-27T14:57:02.281Z,101124.16
2023-02-27T14:59:42.094Z,101117.63
2023-02-27T15:02:34.505Z,101126.03
2023-02-27T15:05:01.105Z,101120.78
2023-02-27T15:07:31.153Z,101116.38
2023-02-27T15:10:02.124Z,101117.22
2023-02-27T15:12:31.070Z,101119.13
2023-02-27T15:15:00.945Z,101113.59
2023-02-27T15:17:39.491Z,101114.47
2023-02-27T15:20:30.153Z,101120.84
2023-02-27T15:23:01.600Z,101127.28
2023-02-27T15:25:28.149Z,101123.28
2023-02-27T15:27:59.192Z,101126.59
2023-02-27T15:30:25.829Z,101125.28
2023-02-27T15:32:54.769Z,101116.53
2023-02-27T15:35:24.647Z,101119.59
2023-02-27T15:37:56.435Z,101119.38
2023-02-27T15:40:28.101Z,101106.72
2023-02-27T15:42:55.891Z,101126.47
2023-02-27T15:45:27.632Z,101118.88
2023-02-27T15:47:55.145Z,101111.34
2023-02-27T15:50:31.660Z,101116.66
2023-02-27T15:53:21.049Z,101126.91
2023-02-27T15:56:05.984Z,101125.94
2023-02-27T15:58:38.960Z,101128.75
2023-02-27T16:01:08.076Z,101137.88
2023-02-27T16:03:42.467Z,101137.38
2023-02-27T16:06:35.602Z,101137.16
2023-02-27T16:09:06.441Z,101143.03
2023-02-27T16:11:35.673Z,101142.66
2023-02-27T16:14:02.993Z,101142.09
2023-02-27T16:16:38.392Z,101150.19
2023-02-27T16:19:15.365Z,101150.38
2023-02-27T16:22:20.497Z,101159.16
2023-02-27T16:24:48.056Z,101155.28
2023-02-27T16:27:19.443Z,101150.66
2023-02-27T16:29:47.165Z,101154.66
2023-02-27T16:32:46.651Z,101150.28
2023-02-27T16:35:22.645Z,101147.22
2023-02-27T16:37:50.429Z,101162.50
2023-02-27T16:40:23.012Z,101157.00
2023-02-27T16:42:50.676Z,101158.34
2023-02-27T16:45:19.489Z,101151.03
2023-02-27T16:47:49.092Z,101158.59
2023-02-27T16:50:22.168Z,101159.13
2023-02-27T16:52:48.783Z,101157.78
2023-02-27T16:55:15.319Z,101159.03
2023-02-27T16:57:41.840Z,101161.97
2023-02-27T17:00:13.251Z,101164.94
2023-02-27T17:02:39.871Z,101166.94
2023-02-27T17:05:06.893Z,101168.91
2023-02-27T17:07:33.498Z,101169.97
2023-02-27T17:10:02.908Z,101171.94
2023-02-27T17:12:29.423Z,101177.44
2023-02-27T17:14:56.361Z,101183.81
2023-02-27T17:17:22.852Z,101180.56
2023-02-27T17:19:49.352Z,101179.16
2023-02-27T17:22:15.898Z,101188.16
2023-02-27T17:24:42.482Z,101186.72
2023-02-27T17:27:09.396Z,101185.22
2023-02-27T17:29:38.362Z,101189.88
2023-02-27T17:32:05.429Z,101186.59
2023-02-27T17:34:31.981Z,101190.25
2023-02-27T17:36:58.519Z,101186.03
2023-02-27T17:39:25.017Z,101192.28
2023-02-27T17:41:53.073Z,101188.94
2023-02-27T17:44:19.690Z,101196.06
2023-02-27T17:47:05.767Z,101197.97
2023-02-27T17:49:32.194Z,101204.13
2023-02-27T17:52:00.487Z,101202.44
2023-02-27T17:54:27.147Z,101200.81
2023-02-27T17:56:53.638Z,101203.59
2023-02-27T17:59:20.278Z,101209.81
2023-02-27T18:01:46.823Z,101210.00
2023-02-27T18:04:13.851Z,101215.31
2023-02-27T18:06:40.464Z,101210.16
2023-02-27T18:09:06.970Z,101210.22
2023-02-27T18:11:33.598Z,101217.25
2023-02-27T18:14:00.441Z,101218.09
2023-02-27T18:16:27.283Z,101218.13
2023-02-27T18:18:54.003Z,101212.06
2023-02-27T18:21:23.152Z,101219.91
2023-02-27T18:23:51.657Z,101216.41
2023-02-27T18:26:30.821Z,101216.44
2023-02-27T18:29:03.793Z,101209.47
2023-02-27T18:31:33.548Z,101212.09
2023-02-27T18:34:00.992Z,101213.00
2023-02-27T18:36:29.306Z,101217.38
2023-02-27T18:38:56.270Z,101219.16
2023-02-27T18:41:23.009Z,101218.31
2023-02-27T18:43:49.826Z,101222.72
2023-02-27T18:46:16.492Z,101224.53
2023-02-27T18:48:44.503Z,101225.41
2023-02-27T18:51:14.608Z,101226.31
2023-02-27T18:53:44.280Z,101224.59
2023-02-27T18:56:12.566Z,101228.13
2023-02-27T18:58:39.357Z,101222.94
2023-02-27T19:01:19.049Z,101220.34
2023-02-27T19:03:46.140Z,101223.88
2023-02-27T19:06:13.493Z,101218.66
2023-02-27T19:08:40.069Z,101223.06
2023-02-27T19:11:06.600Z,101216.97
2023-02-27T19:13:33.135Z,101212.63
2023-02-27T19:16:04.707Z,101214.44
2023-02-27T19:18:31.634Z,101215.34
2023-02-27T19:21:03.140Z,101216.28
2023-02-27T19:23:30.377Z,101216.31
2023-02-27T19:26:01.031Z,101224.22
2023-02-27T19:28:27.960Z,101220.78
2023-02-27T19:30:54.661Z,101215.59
2023-02-27T19:33:21.466Z,101219.13
2023-02-27T19:35:48.097Z,101218.31
2023-02-27T19:38:14.735Z,101220.97
2023-02-27T19:40:41.233Z,101232.34
2023-02-27T19:43:07.898Z,101230.63
2023-02-27T19:45:34.566Z,101226.31
2023-02-27T19:48:01.586Z,101235.88
2023-02-27T19:50:30.185Z,101225.47
2023-02-27T19:52:56.769Z,101231.59
2023-02-27T19:55:23.205Z,101233.38
2023-02-27T19:57:49.788Z,101234.28
2023-02-27T20:00:17.127Z,101236.03
2023-02-27T20:02:43.694Z,101236.94
2023-02-27T20:05:12.028Z,101233.53
2023-02-27T20:07:39.162Z,101238.75
2023-02-27T20:10:05.938Z,101237.94
2023-02-27T20:12:32.691Z,101232.75
2023-02-27T20:14:59.190Z,101235.38
2023-02-27T20:17:25.711Z,101234.56
2023-02-27T20:19:52.237Z,101237.22
2023-02-27T20:22:18.673Z,101242.53
2023-02-27T20:24:45.481Z,101244.28
2023-02-27T20:27:12.216Z,101233.91
2023-02-27T20:29:38.822Z,101240.03
2023-02-27T20:32:05.391Z,101241.81
2023-02-27T20:34:32.046Z,101244.47
2023-02-27T20:37:00.255Z,101241.00
2023-02-27T20:39:28.022Z,101241.88
2023-02-27T20:41:54.541Z,101245.38
2023-02-27T20:44:21.003Z,101250.63
2023-02-27T20:46:49.265Z,101245.41
2023-02-27T20:49:16.636Z,101250.66
2023-02-27T20:51:44.027Z,101250.66
2023-02-27T20:54:15.279Z,101245.50
2023-02-27T20:56:43.089Z,101241.13
2023-02-27T20:59:12.912Z,101243.75
2023-02-27T21:01:39.654Z,101247.25
2023-02-27T21:04:06.742Z,101247.25
2023-02-27T21:06:34.896Z,101251.63
2023-02-27T21:09:04.484Z,101249.88
2023-02-27T21:11:33.297Z,101256.00
2023-02-27T21:14:04.528Z,101254.28
2023-02-27T21:16:31.429Z,101252.53
2023-02-27T21:18:58.109Z,101246.44
2023-02-27T21:21:28.181Z,101250.84
2023-02-27T21:23:55.354Z,101247.34
2023-02-27T21:26:30.797Z,101257.81
2023-02-27T21:29:02.612Z,101261.31
2023-02-27T21:31:31.708Z,101256.16
2023-02-27T21:34:00.562Z,101257.91
2023-02-27T21:36:30.240Z,101256.19
2023-02-27T21:39:02.536Z,101259.69
2023-02-27T21:41:29.940Z,101269.25
2023-02-27T21:44:01.251Z,101262.34
2023-02-27T21:46:28.119Z,101266.69
2023-02-27T21:48:54.804Z,101272.81
2023-02-27T21:51:36.730Z,101279.78
2023-02-27T21:54:05.684Z,101278.06
2023-02-27T21:56:34.579Z,101271.97
2023-02-27T21:59:01.850Z,101274.63
2023-02-27T22:01:29.791Z,101279.84
2023-02-27T22:03:57.237Z,101272.88
2023-02-27T22:06:25.725Z,101272.00
2023-02-27T22:08:54.795Z,101272.84
2023-02-27T22:11:21.709Z,101275.47
2023-02-27T22:13:48.409Z,101271.06
2023-02-27T22:16:15.094Z,101267.59
2023-02-27T22:18:41.866Z,101264.09
2023-02-27T22:21:11.467Z,101270.16
2023-02-27T22:23:38.553Z,101265.81
2023-02-27T22:26:08.631Z,101271.94
2023-02-27T22:28:37.040Z,101269.34
2023-02-27T22:31:28.768Z,101275.47
2023-02-27T22:33:59.031Z,101272.00
2023-02-27T22:36:29.123Z,101280.69
2023-02-27T22:38:56.341Z,101277.25
2023-02-27T22:41:29.154Z,101285.09
2023-02-27T22:43:56.236Z,101282.47
2023-02-27T22:46:34.699Z,101281.59
2023-02-27T22:49:08.134Z,101283.38
2023-02-27T22:51:35.198Z,101273.81
2023-02-27T22:54:03.486Z,101281.66
2023-02-27T22:56:31.012Z,101275.63
2023-02-27T22:58:57.623Z,101278.22
2023-02-27T23:01:33.236Z,101276.50
2023-02-27T23:04:03.397Z,101272.19
2023-02-27T23:06:33.012Z,101281.75
2023-02-27T23:09:00.495Z,101281.72
2023-02-27T23:11:27.812Z,101286.06
2023-02-27T23:13:54.689Z,101288.66
2023-02-27T23:16:21.356Z,101286.91
2023-02-27T23:18:50.418Z,101286.03
2023-02-27T23:21:18.969Z,101282.53
2023-02-27T23:23:45.848Z,101291.22
2023-02-27T23:26:12.723Z,101284.25
2023-02-27T23:31:14.745Z,101290.31
2023-02-27T23:33:41.329Z,101297.25
2023-02-27T23:36:07.929Z,101296.34
2023-02-27T23:38:34.383Z,101295.44
2023-02-27T23:41:08.601Z,101301.53
2023-02-27T23:43:35.882Z,101291.91
2023-02-27T23:46:10.066Z,101298.03
2023-02-27T23:48:37.451Z,101302.28
2023-02-27T23:51:05.762Z,101306.66
2023-02-27T23:53:33.371Z,101301.38
2023-02-27T23:55:59.986Z,101300.47
2023-02-27T23:58:26.596Z,101301.34
